createdAt,value
2023-03-18T00:00:10.173Z,98332.13
2023-03-18T00:02:38.220Z,98337.06
2023-03-18T00:05:07.619Z,98338.28
2023-03-18T00:07:36.228Z,98343.13
2023-03-18T00:10:04.868Z,98325.88
2023-03-18T00:12:33.225Z,98333.06
2023-03-18T00:15:00.008Z,98339.75
2023-03-18T00:17:28.047Z,98340.59
2023-03-18T00:19:55.273Z,98346.72
2023-03-18T00:22:22.737Z,98343.41
2023-03-18T00:24:49.406Z,98353.25
2023-03-18T00:27:16.195Z,98352.53
2023-03-18T00:29:43.003Z,98362.13
2023-03-18T00:32:10.000Z,98362.84
2023-03-18T00:34:36.760Z,98362.13
2023-03-18T00:37:03.724Z,98370.78
2023-03-18T00:39:33.082Z,98370.00
2023-03-18T00:42:02.031Z,98372.13
2023-03-18T00:44:28.859Z,98379.84
2023-03-18T00:46:55.686Z,98368.81
2023-03-18T00:49:22.402Z,98366.34
2023-03-18T00:51:49.111Z,98373.41
2023-03-18T00:54:18.730Z,98367.84
2023-03-18T00:56:45.560Z,98376.22
2023-03-18T00:59:12.268Z,98374.28
2023-03-18T01:01:39.314Z,98378.38
2023-03-18T01:04:07.132Z,98375.97
2023-03-18T01:06:36.009Z,98380.69
2023-03-18T01:09:05.256Z,98379.25
2023-03-18T01:11:33.418Z,98381.34
2023-03-18T01:14:00.740Z,98379.53
2023-03-18T01:16:28.461Z,98385.38
2023-03-18T01:18:55.206Z,98391.78
2023-03-18T01:21:22.579Z,98391.19
2023-03-18T01:23:49.377Z,98395.63
2023-03-18T01:26:16.860Z,98398.72
2023-03-18T01:28:43.501Z,98395.94
2023-03-18T01:31:10.648Z,98392.59
2023-03-18T01:33:37.376Z,98385.91
2023-03-18T01:36:05.134Z,98395.06
2023-03-18T01:38:32.381Z,98388.66
2023-03-18T01:41:00.932Z,98388.03
2023-03-18T01:43:36.304Z,98394.88
2023-03-18T01:46:29.153Z,98389.94
2023-03-18T01:48:56.905Z,98386.94
2023-03-18T01:51:26.668Z,98388.69
2023-03-18T01:53:54.650Z,98388.88
2023-03-18T01:56:22.206Z,98387.09
2023-03-18T01:58:53.606Z,98390.56
2023-03-18T02:01:26.510Z,98390.81
2023-03-18T02:03:54.219Z,98392.50
2023-03-18T02:06:21.009Z,98391.69
2023-03-18T02:08:47.960Z,98397.69
2023-03-18T02:11:14.987Z,98412.16
2023-03-18T02:13:44.533Z,98407.56
2023-03-18T02:16:44.346Z,98402.84
2023-03-18T02:19:44.903Z,98411.34
2023-03-18T02:22:23.965Z,98409.28
2023-03-18T02:24:50.713Z,98416.06
2023-03-18T02:27:30.276Z,98416.72
2023-03-18T02:30:01.566Z,98406.72
2023-03-18T02:32:31.193Z,98407.75
2023-03-18T02:35:01.298Z,98410.97
2023-03-18T02:37:27.990Z,98411.94
2023-03-18T02:39:54.665Z,98415.44
2023-03-18T02:42:31.929Z,98416.63
2023-03-18T02:44:59.741Z,98411.22
2023-03-18T02:47:28.921Z,98417.22
2023-03-18T02:49:56.742Z,98420.72
2023-03-18T02:52:23.537Z,98415.44
2023-03-18T02:54:50.227Z,98427.09
2023-03-18T02:57:16.848Z,98431.81
2023-03-18T02:59:43.528Z,98421.34
2023-03-18T03:02:10.780Z,98431.63
2023-03-18T03:04:37.638Z,98430.66
2023-03-18T03:07:04.401Z,98433.13
2023-03-18T03:09:31.238Z,98430.13
2023-03-18T03:11:57.896Z,98429.59
2023-03-18T03:14:24.569Z,98435.56
2023-03-18T03:16:51.931Z,98444.94
2023-03-18T03:19:18.664Z,98443.16
2023-03-18T03:21:45.302Z,98437.44
2023-03-18T03:24:12.062Z,98442.72
2023-03-18T03:26:38.714Z,98445.25
2023-03-18T03:29:05.677Z,98453.75
2023-03-18T03:31:33.010Z,98442.22
2023-03-18T03:34:00.120Z,98449.75
2023-03-18T03:36:27.269Z,98443.97
2023-03-18T03:38:54.135Z,98442.00
2023-03-18T03:41:21.020Z,98439.53
2023-03-18T03:43:48.010Z,98441.34
2023-03-18T03:46:15.556Z,98448.16
2023-03-18T03:48:42.529Z,98452.59
2023-03-18T03:51:09.377Z,98451.91
2023-03-18T03:53:36.287Z,98449.25
2023-03-18T03:56:04.537Z,98437.91
2023-03-18T03:58:31.299Z,98447.06
2023-03-18T04:00:58.404Z,98444.59
2023-03-18T04:03:25.664Z,98442.63
2023-03-18T04:05:52.676Z,98447.91
2023-03-18T04:08:19.662Z,98453.91
2023-03-18T04:10:46.951Z,98446.41
2023-03-18T04:13:13.940Z,98446.28
2023-03-18T04:15:40.894Z,98443.44
2023-03-18T04:18:09.094Z,98448.59
2023-03-18T04:20:37.645Z,98446.34
2023-03-18T04:23:05.356Z,98444.13
2023-03-18T04:25:33.330Z,98452.94
2023-03-18T04:28:00.141Z,98457.53
2023-03-18T04:30:27.568Z,98451.38
2023-03-18T04:32:55.058Z,98457.81
2023-03-18T04:35:23.439Z,98453.06
2023-03-18T04:37:50.313Z,98455.13
2023-03-18T04:40:17.919Z,98458.63
2023-03-18T04:42:47.612Z,98459.75
2023-03-18T04:45:16.091Z,98458.22
2023-03-18T04:47:44.455Z,98452.81
2023-03-18T04:50:12.591Z,98464.25
2023-03-18T04:52:42.892Z,98462.81
2023-03-18T04:55:10.974Z,98449.31
2023-03-18T04:57:38.781Z,98462.81
2023-03-18T05:00:11.999Z,98448.91
2023-03-18T05:02:40.066Z,98454.19
2023-03-18T05:05:08.213Z,98439.13
2023-03-18T05:07:35.085Z,98445.25
2023-03-18T05:10:02.033Z,98451.09
2023-03-18T05:12:28.803Z,98448.59
2023-03-18T05:14:55.895Z,98443.41
2023-03-18T05:17:22.557Z,98443.56
2023-03-18T05:19:49.427Z,98440.22
2023-03-18T05:22:18.276Z,98434.34
2023-03-18T05:24:48.740Z,98437.25
2023-03-18T05:27:18.482Z,98431.13
2023-03-18T05:29:46.083Z,98438.59
2023-03-18T05:32:14.792Z,98432.34
2023-03-18T05:34:42.509Z,98438.47
2023-03-18T05:37:12.281Z,98442.66
2023-03-18T05:39:39.826Z,98447.13
2023-03-18T05:42:07.319Z,98447.91
2023-03-18T05:44:34.880Z,98455.16
2023-03-18T05:47:02.721Z,98445.13
2023-03-18T05:49:29.452Z,98449.59
2023-03-18T05:51:56.339Z,98449.03
2023-03-18T05:54:23.511Z,98451.81
2023-03-18T05:56:52.588Z,98461.38
2023-03-18T05:59:20.054Z,98455.81
2023-03-18T06:01:47.040Z,98461.97
2023-03-18T06:04:13.799Z,98458.19
2023-03-18T06:06:41.164Z,98462.63
2023-03-18T06:09:10.843Z,98468.94
2023-03-18T06:11:40.153Z,98469.38
2023-03-18T06:14:08.203Z,98471.03
2023-03-18T06:16:35.405Z,98476.06
2023-03-18T06:19:03.462Z,98475.38
2023-03-18T06:21:31.704Z,98469.88
2023-03-18T06:23:58.785Z,98473.38
2023-03-18T06:26:25.666Z,98471.97
2023-03-18T06:28:52.662Z,98463.06
2023-03-18T06:31:19.622Z,98466.97
2023-03-18T06:33:46.609Z,98481.06
2023-03-18T06:36:13.477Z,98478.16
2023-03-18T06:38:40.393Z,98472.97
2023-03-18T06:41:07.279Z,98484.00
2023-03-18T06:43:34.000Z,98480.81
2023-03-18T06:46:00.919Z,98478.34
2023-03-18T06:48:28.957Z,98483.78
2023-03-18T06:50:55.806Z,98482.94
2023-03-18T06:53:23.003Z,98476.81
2023-03-18T06:55:49.990Z,98481.81
2023-03-18T06:58:17.490Z,98487.13
2023-03-18T07:00:45.534Z,98492.03
2023-03-18T07:03:13.462Z,98494.44
2023-03-18T07:05:42.198Z,98494.81
2023-03-18T07:08:09.349Z,98492.31
2023-03-18T07:10:36.231Z,98493.00
2023-03-18T07:13:02.922Z,98500.56
2023-03-18T07:15:30.578Z,98508.78
2023-03-18T07:17:57.288Z,98506.81
2023-03-18T07:20:24.225Z,98502.09
2023-03-18T07:22:51.631Z,98508.78
2023-03-18T07:25:18.367Z,98510.59
2023-03-18T07:27:45.694Z,98513.38
2023-03-18T07:30:13.737Z,98506.97
2023-03-18T07:32:40.429Z,98516.72
2023-03-18T07:35:08.074Z,98525.78
2023-03-18T07:37:36.050Z,98522.56
2023-03-18T07:40:02.901Z,98529.84
2023-03-18T07:42:29.537Z,98530.94
2023-03-18T07:44:56.348Z,98535.66
2023-03-18T07:47:25.019Z,98528.41
2023-03-18T07:49:52.119Z,98526.13
2023-03-18T07:52:19.301Z,98527.75
2023-03-18T07:54:46.028Z,98531.63
2023-03-18T07:57:13.093Z,98521.06
2023-03-18T07:59:39.879Z,98523.00
2023-03-18T08:02:08.246Z,98534.97
2023-03-18T08:04:35.674Z,98530.03
2023-03-18T08:07:03.219Z,98519.50
2023-03-18T08:09:29.883Z,98523.69
2023-03-18T08:11:56.703Z,98538.00
2023-03-18T08:14:23.511Z,98552.28
2023-03-18T08:16:50.350Z,98540.81
2023-03-18T08:19:17.302Z,98548.91
2023-03-18T08:21:44.205Z,98544.69
2023-03-18T08:24:11.231Z,98547.22
2023-03-18T08:26:38.213Z,98563.19
2023-03-18T08:29:04.890Z,98562.06
2023-03-18T08:31:31.911Z,98564.59
2023-03-18T08:34:00.541Z,98565.13
2023-03-18T08:36:28.905Z,98567.66
2023-03-18T08:38:56.599Z,98557.97
2023-03-18T08:41:25.768Z,98560.31
2023-03-18T08:43:53.230Z,98554.41
2023-03-18T08:46:20.182Z,98554.09
2023-03-18T08:48:47.265Z,98552.94
2023-03-18T08:51:14.756Z,98551.81
2023-03-18T08:53:41.480Z,98550.31
2023-03-18T08:56:08.356Z,98555.88
2023-03-18T08:58:35.205Z,98563.66
2023-03-18T09:01:05.502Z,98563.69
2023-03-18T09:03:33.827Z,98560.81
2023-03-18T09:06:01.166Z,98562.34
2023-03-18T09:08:30.814Z,98559.22
2023-03-18T09:10:58.408Z,98549.91
2023-03-18T09:13:26.147Z,98549.38
2023-03-18T09:15:53.103Z,98554.69
2023-03-18T09:18:20.110Z,98557.50
2023-03-18T09:20:46.803Z,98544.34
2023-03-18T09:23:14.555Z,98561.22
2023-03-18T09:25:44.866Z,98558.56
2023-03-18T09:28:11.524Z,98563.28
2023-03-18T09:30:39.121Z,98561.97
2023-03-18T09:33:07.050Z,98551.69
2023-03-18T09:35:35.382Z,98558.00
2023-03-18T09:38:02.518Z,98559.81
2023-03-18T09:40:32.750Z,98559.25
2023-03-18T09:43:23.039Z,98560.75
2023-03-18T09:46:05.151Z,98553.03
2023-03-18T09:48:31.898Z,98556.78
2023-03-18T09:51:10.273Z,98560.16
2023-03-18T09:54:08.770Z,98568.78
2023-03-18T09:56:36.868Z,98561.63
2023-03-18T09:59:21.646Z,98566.22
2023-03-18T10:01:54.417Z,98568.56
2023-03-18T10:04:27.991Z,98562.44
2023-03-18T10:07:04.238Z,98563.09
2023-03-18T10:09:44.650Z,98574.16
2023-03-18T10:12:35.754Z,98573.31
2023-03-18T10:15:11.283Z,98568.19
2023-03-18T10:17:42.676Z,98555.25
2023-03-18T10:20:37.745Z,98566.16
2023-03-18T10:23:27.459Z,98568.13
2023-03-18T10:25:58.057Z,98568.97
2023-03-18T10:28:41.743Z,98571.59
2023-03-18T10:31:53.053Z,98564.19
2023-03-18T10:34:23.481Z,98566.47
2023-03-18T10:36:55.674Z,98567.72
2023-03-18T10:39:26.019Z,98568.75
2023-03-18T10:41:54.428Z,98559.25
2023-03-18T10:44:27.054Z,98572.22
2023-03-18T10:47:19.922Z,98571.91
2023-03-18T10:50:12.018Z,98567.56
2023-03-18T10:52:47.251Z,98564.59
2023-03-18T10:55:17.773Z,98561.94
2023-03-18T10:57:44.596Z,98563.09
2023-03-18T11:00:34.502Z,98559.72
2023-03-18T11:03:04.283Z,98561.25
2023-03-18T11:05:35.773Z,98558.06
2023-03-18T11:08:05.607Z,98558.06
2023-03-18T11:10:36.092Z,98558.56
2023-03-18T11:13:03.476Z,98566.72
2023-03-18T11:15:39.828Z,98558.22
2023-03-18T11:18:18.338Z,98564.88
2023-03-18T11:20:59.401Z,98565.19
2023-03-18T11:23:48.575Z,98556.97
2023-03-18T11:26:22.185Z,98554.63
2023-03-18T11:28:48.885Z,98548.75
2023-03-18T11:31:18.909Z,98556.16
2023-03-18T11:33:45.748Z,98550.13
2023-03-18T11:36:22.936Z,98543.16
2023-03-18T11:39:03.914Z,98540.25
2023-03-18T11:41:30.818Z,98532.88
2023-03-18T11:44:03.512Z,98526.84
2023-03-18T11:46:43.507Z,98524.34
2023-03-18T11:49:15.542Z,98530.03
2023-03-18T11:51:44.738Z,98522.88
2023-03-18T11:54:11.263Z,98523.31
2023-03-18T11:56:58.699Z,98518.19
2023-03-18T11:59:52.868Z,98514.59
2023-03-18T12:02:19.516Z,98510.72
2023-03-18T12:04:54.897Z,98515.88
2023-03-18T12:07:40.665Z,98513.84
2023-03-18T12:10:26.294Z,98502.06
2023-03-18T12:13:05.204Z,98504.25
2023-03-18T12:15:53.193Z,98495.72
2023-03-18T12:18:29.109Z,98506.75
2023-03-18T12:21:02.700Z,98512.63
2023-03-18T12:23:40.007Z,98498.56
2023-03-18T12:26:11.693Z,98510.47
2023-03-18T12:28:38.278Z,98506.72
2023-03-18T12:31:14.271Z,98510.44
2023-03-18T12:33:50.964Z,98504.97
2023-03-18T12:36:20.477Z,98509.34
2023-03-18T12:39:08.826Z,98505.84
2023-03-18T12:41:46.186Z,98505.97
2023-03-18T12:44:38.971Z,98508.16
2023-03-18T12:47:15.442Z,98503.88
2023-03-18T12:49:49.458Z,98494.88
2023-03-18T12:52:38.080Z,98486.41
2023-03-18T12:55:11.395Z,98496.09
2023-03-18T12:57:48.788Z,98492.97
2023-03-18T13:00:37.310Z,98486.88
2023-03-18T13:03:25.112Z,98493.38
2023-03-18T13:05:58.446Z,98491.34
2023-03-18T13:08:54.367Z,98493.00
2023-03-18T13:11:54.817Z,98491.03
2023-03-18T13:14:31.469Z,98490.72
2023-03-18T13:16:59.266Z,98487.69
2023-03-18T13:19:25.989Z,98482.13
2023-03-18T13:22:03.923Z,98473.09
2023-03-18T13:24:39.855Z,98478.13
2023-03-18T13:27:19.752Z,98483.91
2023-03-18T13:30:17.622Z,98481.66
2023-03-18T13:32:53.294Z,98478.94
2023-03-18T13:35:22.641Z,98466.44
2023-03-18T13:38:14.601Z,98477.25
2023-03-18T13:40:50.891Z,98487.63
2023-03-18T13:43:21.168Z,98488.66
2023-03-18T13:45:53.657Z,98470.19
2023-03-18T13:48:33.767Z,98473.88
2023-03-18T13:51:34.464Z,98472.19
2023-03-18T13:54:08.784Z,98478.31
2023-03-18T13:56:42.872Z,98474.97
2023-03-18T13:59:34.412Z,98468.88
2023-03-18T14:02:55.752Z,98469.25
2023-03-18T14:05:42.556Z,98465.25
2023-03-18T14:08:42.354Z,98458.81
2023-03-18T14:11:19.715Z,98456.84
2023-03-18T14:13:55.463Z,98461.53
2023-03-18T14:16:30.036Z,98456.53
2023-03-18T14:19:00.139Z,98459.41
2023-03-18T14:21:29.450Z,98460.72
2023-03-18T14:24:07.585Z,98454.72
2023-03-18T14:26:34.666Z,98456.44
2023-03-18T14:29:07.298Z,98446.59
2023-03-18T14:31:40.045Z,98458.41
2023-03-18T14:34:19.271Z,98455.16
2023-03-18T14:36:55.659Z,98455.91
2023-03-18T14:39:28.190Z,98459.72
2023-03-18T14:41:58.154Z,98445.53
2023-03-18T14:44:36.121Z,98444.94
2023-03-18T14:47:35.604Z,98443.91
2023-03-18T14:50:14.500Z,98442.22
2023-03-18T14:52:47.999Z,98437.41
2023-03-18T14:55:21.542Z,98439.84
2023-03-18T14:57:48.209Z,98434.47
2023-03-18T15:00:21.747Z,98442.41
2023-03-18T15:03:00.702Z,98445.38
2023-03-18T15:05:34.939Z,98446.91
2023-03-18T15:08:02.557Z,98450.56
2023-03-18T15:10:31.744Z,98439.50
2023-03-18T15:13:04.616Z,98445.88
2023-03-18T15:15:32.282Z,98456.41
2023-03-18T15:18:16.862Z,98453.16
2023-03-18T15:20:44.640Z,98450.84
2023-03-18T15:23:14.727Z,98453.66
2023-03-18T15:25:44.560Z,98446.13
2023-03-18T15:28:19.469Z,98446.94
2023-03-18T15:30:55.769Z,98447.28
2023-03-18T15:33:26.164Z,98449.84
2023-03-18T15:36:03.241Z,98450.94
2023-03-18T15:38:31.646Z,98454.09
2023-03-18T15:41:10.348Z,98444.50
2023-03-18T15:43:46.047Z,98452.81
2023-03-18T15:46:19.468Z,98448.41
2023-03-18T15:48:54.608Z,98450.00
2023-03-18T15:51:38.623Z,98449.34
2023-03-18T15:54:14.929Z,98447.97
2023-03-18T15:56:48.807Z,98453.34
2023-03-18T15:59:24.330Z,98458.84
2023-03-18T16:01:50.980Z,98461.00
2023-03-18T16:04:18.302Z,98458.31
2023-03-18T16:06:45.008Z,98454.88
2023-03-18T16:09:20.146Z,98459.34
2023-03-18T16:11:54.382Z,98456.19
2023-03-18T16:14:28.662Z,98463.00
2023-03-18T16:16:55.345Z,98460.19
2023-03-18T16:19:25.406Z,98455.94
2023-03-18T16:21:53.092Z,98463.16
2023-03-18T16:24:20.130Z,98458.47
2023-03-18T16:26:47.024Z,98457.28
2023-03-18T16:29:33.755Z,98467.44
2023-03-18T16:32:01.903Z,98472.97
2023-03-18T16:34:28.802Z,98483.53
2023-03-18T16:36:56.152Z,98480.97
2023-03-18T16:39:25.031Z,98488.63
2023-03-18T16:41:52.716Z,98483.53
2023-03-18T16:44:22.264Z,98484.75
2023-03-18T16:46:53.815Z,98496.09
2023-03-18T16:49:24.058Z,98494.69
2023-03-18T16:51:51.710Z,98496.09
2023-03-18T16:54:21.056Z,98500.84
2023-03-18T16:56:48.980Z,98500.06
2023-03-18T16:59:15.822Z,98491.38
2023-03-18T17:01:43.970Z,98497.56
2023-03-18T17:04:30.671Z,98487.06
2023-03-18T17:06:59.819Z,98493.19
2023-03-18T17:09:26.937Z,98491.78
2023-03-18T17:12:00.537Z,98496.47
2023-03-18T17:14:34.768Z,98494.50
2023-03-18T17:17:05.268Z,98490.41
2023-03-18T17:19:31.903Z,98494.66
2023-03-18T17:21:58.547Z,98490.88
2023-03-18T17:24:25.230Z,98494.28
2023-03-18T17:26:52.725Z,98495.88
2023-03-18T17:29:24.562Z,98505.41
2023-03-18T17:31:53.693Z,98507.31
2023-03-18T17:34:21.443Z,98506.81
2023-03-18T17:36:48.690Z,98504.16
2023-03-18T17:39:15.772Z,98508.19
2023-03-18T17:41:42.827Z,98509.88
2023-03-18T17:44:30.164Z,98513.56
2023-03-18T17:46:57.638Z,98513.88
2023-03-18T17:49:26.522Z,98513.50
2023-03-18T17:51:56.652Z,98518.50
2023-03-18T17:54:27.229Z,98521.75
2023-03-18T17:56:54.068Z,98522.22
2023-03-18T17:59:21.076Z,98523.38
2023-03-18T18:01:50.386Z,98530.47
2023-03-18T18:04:18.750Z,98539.75
2023-03-18T18:06:47.979Z,98537.03
2023-03-18T18:09:15.888Z,98531.19
2023-03-18T18:11:45.713Z,98535.47
2023-03-18T18:14:24.621Z,98539.22
2023-03-18T18:16:53.686Z,98534.69
2023-03-18T18:19:20.665Z,98530.13
2023-03-18T18:21:49.204Z,98537.06
2023-03-18T18:24:25.881Z,98529.47
2023-03-18T18:26:52.771Z,98536.56
2023-03-18T18:29:24.751Z,98535.94
2023-03-18T18:31:52.365Z,98535.75
2023-03-18T18:34:21.314Z,98542.69
2023-03-18T18:36:48.726Z,98547.25
2023-03-18T18:39:15.438Z,98547.53
2023-03-18T18:41:42.124Z,98556.09
2023-03-18T18:44:08.827Z,98555.06
2023-03-18T18:46:36.024Z,98558.47
2023-03-18T18:49:03.354Z,98556.00
2023-03-18T18:51:30.059Z,98565.94
2023-03-18T18:53:56.708Z,98561.69
2023-03-18T18:56:35.303Z,98557.78
2023-03-18T18:59:07.527Z,98559.50
2023-03-18T19:01:34.179Z,98564.84
2023-03-18T19:04:02.720Z,98558.44
2023-03-18T19:06:31.639Z,98564.06
2023-03-18T19:09:00.396Z,98560.44
2023-03-18T19:11:28.500Z,98557.53
2023-03-18T19:14:15.331Z,98557.97
2023-03-18T19:16:42.587Z,98554.06
2023-03-18T19:19:21.297Z,98557.44
2023-03-18T19:21:49.116Z,98558.84
2023-03-18T19:24:33.360Z,98562.19
2023-03-18T19:27:05.618Z,98566.25
2023-03-18T19:29:35.539Z,98562.78
2023-03-18T19:32:02.274Z,98564.03
2023-03-18T19:34:32.293Z,98568.63
2023-03-18T19:36:59.924Z,98563.50
2023-03-18T19:39:28.138Z,98565.31
2023-03-18T19:41:54.844Z,98560.00
2023-03-18T19:44:24.206Z,98567.53
2023-03-18T19:46:58.621Z,98567.94
2023-03-18T19:49:35.742Z,98566.41
2023-03-18T19:52:17.070Z,98570.59
2023-03-18T19:54:43.935Z,98577.16
2023-03-18T19:57:20.390Z,98569.06
2023-03-18T19:59:49.191Z,98574.50
2023-03-18T20:02:26.105Z,98572.28
2023-03-18T20:04:58.081Z,98576.72
2023-03-18T20:07:29.967Z,98567.41
2023-03-18T20:09:56.800Z,98577.03
2023-03-18T20:12:30.413Z,98575.63
2023-03-18T20:14:57.008Z,98582.72
2023-03-18T20:17:23.514Z,98583.16
2023-03-18T20:19:50.601Z,98592.25
2023-03-18T20:22:27.006Z,98585.09
2023-03-18T20:24:54.633Z,98585.09
2023-03-18T20:27:21.941Z,98588.88
2023-03-18T20:29:48.699Z,98583.69
2023-03-18T20:32:15.349Z,98590.94
2023-03-18T20:34:43.863Z,98588.28
2023-03-18T20:37:29.947Z,98590.28
2023-03-18T20:39:56.720Z,98580.63
2023-03-18T20:42:23.600Z,98580.34
2023-03-18T20:44:50.194Z,98578.69
2023-03-18T20:47:16.890Z,98574.19
2023-03-18T20:49:47.666Z,98577.84
2023-03-18T20:52:26.023Z,98585.66
2023-03-18T20:54:53.162Z,98588.59
2023-03-18T20:57:19.969Z,98591.25
2023-03-18T20:59:47.301Z,98588.59
2023-03-18T21:02:29.968Z,98585.34
2023-03-18T21:05:01.758Z,98582.31
2023-03-18T21:07:29.113Z,98584.00
2023-03-18T21:09:56.050Z,98580.63
2023-03-18T21:12:23.275Z,98580.91
2023-03-18T21:14:50.128Z,98587.03
2023-03-18T21:17:24.848Z,98575.47
2023-03-18T21:19:53.650Z,98586.19
2023-03-18T21:22:23.361Z,98584.81
2023-03-18T21:24:50.520Z,98583.13
2023-03-18T21:27:22.371Z,98582.41
2023-03-18T21:29:51.199Z,98582.41
2023-03-18T21:32:29.805Z,98593.28
2023-03-18T21:34:56.903Z,98588.09
2023-03-18T21:37:26.540Z,98591.72
2023-03-18T21:39:53.756Z,98599.84
2023-03-18T21:42:24.390Z,98602.47
2023-03-18T21:44:51.909Z,98599.97
2023-03-18T21:47:20.947Z,98600.09
2023-03-18T21:49:49.026Z,98602.03
2023-03-18T21:52:34.473Z,98603.88
2023-03-18T21:55:02.090Z,98604.84
2023-03-18T21:57:29.222Z,98594.25
2023-03-18T21:59:56.178Z,98601.59
2023-03-18T22:02:30.736Z,98599.78
2023-03-18T22:05:02.818Z,98607.63
2023-03-18T22:07:31.677Z,98605.09
2023-03-18T22:09:58.864Z,98606.22
2023-03-18T22:12:31.078Z,98602.84
2023-03-18T22:14:58.277Z,98597.81
2023-03-18T22:17:27.550Z,98602.16
2023-03-18T22:19:56.081Z,98594.50
2023-03-18T22:22:25.679Z,98602.56
2023-03-18T22:24:52.552Z,98594.75
2023-03-18T22:27:25.357Z,98594.84
2023-03-18T22:29:53.404Z,98598.47
2023-03-18T22:32:38.238Z,98603.59
2023-03-18T22:35:18.788Z,98599.72
2023-03-18T22:37:45.971Z,98591.19
2023-03-18T22:40:23.761Z,98588.22
2023-03-18T22:42:53.080Z,98594.06
2023-03-18T22:45:21.775Z,98590.41
2023-03-18T22:47:50.432Z,98597.94
2023-03-18T22:50:17.983Z,98590.38
2023-03-18T22:52:46.032Z,98593.97
2023-03-18T22:55:28.534Z,98595.22
2023-03-18T22:57:55.215Z,98590.88
2023-03-18T23:00:45.300Z,98594.06
2023-03-18T23:03:26.673Z,98592.00
2023-03-18T23:05:55.525Z,98598.00
2023-03-18T23:08:22.672Z,98594.78
2023-03-18T23:10:51.200Z,98595.03
2023-03-18T23:13:26.053Z,98592.78
2023-03-18T23:15:53.179Z,98587.78
2023-03-18T23:18:40.577Z,98604.16
2023-03-18T23:21:07.225Z,98606.63
2023-03-18T23:23:33.825Z,98600.72
2023-03-18T23:26:00.615Z,98595.94
2023-03-18T23:28:27.316Z,98602.28
2023-03-18T23:30:54.059Z,98611.44
2023-03-18T23:33:20.896Z,98598.59
2023-03-18T23:35:48.783Z,98606.66
2023-03-18T23:38:16.125Z,98606.66
2023-03-18T23:40:42.754Z,98604.13
2023-03-18T23:43:09.564Z,98607.16
2023-03-18T23:45:38.080Z,98614.38
2023-03-18T23:48:05.715Z,98609.38
2023-03-18T23:50:32.913Z,98611.28
2023-03-18T23:53:00.202Z,98614.03
2023-03-18T23:55:45.634Z,98614.56
2023-03-18T23:58:12.300Z,98613.72
